Terminal Aerodrome Forecast
Issued by NWS

Home | Current Version | Previous Version | Text Only | Print | Product List | Glossary On
Versions: 1 2 3 4 5 6 7 8 9 10 11 12 13 14 15 16 17 18 19 20 21 22
000
FTUS46 KLOX 270500
TAFOXR
TAF
KOXR 270539Z 2706/2806 VRB05KT P6SM SKC
     FM271200 04008KT P6SM SKC
     FM271500 06015G25KT P6SM SKC
     FM272100 27012KT P6SM SKC
     FM280300 VRB05KT P6SM SKC=

USA.gov is the U.S. government's official web portal to all federal, state and local government web resources and services.